sensor_id;sensor_type;location;lat;lon;timestamp;P1;durP1;ratioP1;P2;durP2;ratioP2
19836;SDS011;10079;55.740;37.662;2023-06-14T00:03:44;8.00;;;4.10;;
19836;SDS011;10079;55.740;37.662;2023-06-14T00:06:29;7.77;;;4.27;;
19836;SDS011;10079;55.740;37.662;2023-06-14T00:09:13;7.23;;;4.13;;
19836;SDS011;10079;55.740;37.662;2023-06-14T00:11:57;6.67;;;4.37;;
19836;SDS011;10079;55.740;37.662;2023-06-14T00:14:41;7.93;;;4.37;;
19836;SDS011;10079;55.740;37.662;2023-06-14T00:17:22;5.60;;;3.70;;
19836;SDS011;10079;55.740;37.662;2023-06-14T00:20:11;6.07;;;3.67;;
19836;SDS011;10079;55.740;37.662;2023-06-14T00:33:26;9.37;;;4.73;;
19836;SDS011;10079;55.740;37.662;2023-06-14T00:36:10;9.27;;;5.13;;
19836;SDS011;10079;55.740;37.662;2023-06-14T00:38:50;7.33;;;4.40;;
19836;SDS011;10079;55.740;37.662;2023-06-14T00:41:32;9.63;;;4.80;;
19836;SDS011;10079;55.740;37.662;2023-06-14T00:44:12;7.33;;;4.40;;
19836;SDS011;10079;55.740;37.662;2023-06-14T00:46:56;8.80;;;4.90;;
19836;SDS011;10079;55.740;37.662;2023-06-14T00:49:37;6.90;;;4.50;;
19836;SDS011;10079;55.740;37.662;2023-06-14T00:52:18;9.40;;;4.67;;
19836;SDS011;10079;55.740;37.662;2023-06-14T00:54:58;9.73;;;4.30;;
19836;SDS011;10079;55.740;37.662;2023-06-14T00:57:42;8.17;;;4.80;;
19836;SDS011;10079;55.740;37.662;2023-06-14T01:00:23;10.47;;;4.77;;
19836;SDS011;10079;55.740;37.662;2023-06-14T01:03:04;6.80;;;4.40;;
19836;SDS011;10079;55.740;37.662;2023-06-14T01:05:44;7.53;;;4.87;;
19836;SDS011;10079;55.740;37.662;2023-06-14T01:08:28;7.20;;;4.60;;
19836;SDS011;10079;55.740;37.662;2023-06-14T01:11:12;11.53;;;5.30;;
19836;SDS011;10079;55.740;37.662;2023-06-14T01:13:51;13.43;;;5.47;;
19836;SDS011;10079;55.740;37.662;2023-06-14T01:16:32;10.57;;;5.47;;
19836;SDS011;10079;55.740;37.662;2023-06-14T01:19:25;10.53;;;5.63;;
19836;SDS011;10079;55.740;37.662;2023-06-14T01:22:06;9.40;;;5.00;;
19836;SDS011;10079;55.740;37.662;2023-06-14T01:24:47;10.60;;;5.20;;
19836;SDS011;10079;55.740;37.662;2023-06-14T01:27:27;12.30;;;5.47;;
19836;SDS011;10079;55.740;37.662;2023-06-14T01:30:21;6.83;;;4.77;;
19836;SDS011;10079;55.740;37.662;2023-06-14T01:33:01;13.27;;;5.43;;
19836;SDS011;10079;55.740;37.662;2023-06-14T01:35:43;11.93;;;6.07;;
19836;SDS011;10079;55.740;37.662;2023-06-14T01:38:23;10.30;;;5.20;;
19836;SDS011;10079;55.740;37.662;2023-06-14T01:41:03;10.60;;;5.93;;
19836;SDS011;10079;55.740;37.662;2023-06-14T01:43:52;10.27;;;6.07;;
19836;SDS011;10079;55.740;37.662;2023-06-14T01:46:33;11.83;;;6.00;;
19836;SDS011;10079;55.740;37.662;2023-06-14T01:49:14;10.57;;;5.97;;
19836;SDS011;10079;55.740;37.662;2023-06-14T01:52:07;11.90;;;6.37;;
19836;SDS011;10079;55.740;37.662;2023-06-14T01:54:47;10.37;;;5.77;;
19836;SDS011;10079;55.740;37.662;2023-06-14T01:57:28;11.17;;;6.17;;
19836;SDS011;10079;55.740;37.662;2023-06-14T02:10:55;10.53;;;6.13;;
19836;SDS011;10079;55.740;37.662;2023-06-14T02:13:45;8.83;;;5.60;;
19836;SDS011;10079;55.740;37.662;2023-06-14T02:16:25;8.73;;;5.80;;
19836;SDS011;10079;55.740;37.662;2023-06-14T02:19:15;11.77;;;6.30;;
19836;SDS011;10079;55.740;37.662;2023-06-14T02:22:08;9.17;;;6.43;;
19836;SDS011;10079;55.740;37.662;2023-06-14T02:25:01;9.50;;;5.80;;
19836;SDS011;10079;55.740;37.662;2023-06-14T02:27:42;10.03;;;6.43;;
19836;SDS011;10079;55.740;37.662;2023-06-14T02:30:34;11.10;;;6.17;;
19836;SDS011;10079;55.740;37.662;2023-06-14T02:33:19;9.63;;;6.00;;
19836;SDS011;10079;55.740;37.662;2023-06-14T02:36:03;8.27;;;5.47;;
19836;SDS011;10079;55.740;37.662;2023-06-14T02:38:44;10.57;;;6.03;;
19836;SDS011;10079;55.740;37.662;2023-06-14T02:41:28;11.10;;;6.10;;
19836;SDS011;10079;55.740;37.662;2023-06-14T02:44:13;11.00;;;6.13;;
19836;SDS011;10079;55.740;37.662;2023-06-14T02:46:53;14.00;;;7.20;;
19836;SDS011;10079;55.740;37.662;2023-06-14T02:49:45;10.70;;;6.97;;
19836;SDS011;10079;55.740;37.662;2023-06-14T02:52:29;9.93;;;7.13;;
19836;SDS011;10079;55.740;37.662;2023-06-14T02:55:14;12.43;;;6.90;;
19836;SDS011;10079;55.740;37.662;2023-06-14T02:58:07;12.00;;;6.90;;
19836;SDS011;10079;55.740;37.662;2023-06-14T03:00:49;13.20;;;7.43;;
19836;SDS011;10079;55.740;37.662;2023-06-14T03:03:33;12.20;;;6.97;;
19836;SDS011;10079;55.740;37.662;2023-06-14T03:06:17;12.90;;;7.10;;
19836;SDS011;10079;55.740;37.662;2023-06-14T03:09:10;12.60;;;7.03;;
19836;SDS011;10079;55.740;37.662;2023-06-14T03:11:54;11.17;;;6.83;;
19836;SDS011;10079;55.740;37.662;2023-06-14T03:14:38;12.43;;;7.47;;
19836;SDS011;10079;55.740;37.662;2023-06-14T03:17:18;14.00;;;7.03;;
19836;SDS011;10079;55.740;37.662;2023-06-14T03:19:59;12.50;;;6.70;;
19836;SDS011;10079;55.740;37.662;2023-06-14T03:22:40;12.93;;;7.20;;
19836;SDS011;10079;55.740;37.662;2023-06-14T03:25:21;11.70;;;6.87;;
19836;SDS011;10079;55.740;37.662;2023-06-14T03:28:02;13.33;;;7.33;;
19836;SDS011;10079;55.740;37.662;2023-06-14T03:30:42;10.18;;;6.82;;
19836;SDS011;10079;55.740;37.662;2023-06-14T03:33:23;13.75;;;6.87;;
19836;SDS011;10079;55.740;37.662;2023-06-14T03:36:04;16.33;;;7.62;;
19836;SDS011;10079;55.740;37.662;2023-06-14T03:38:45;11.43;;;8.13;;
19836;SDS011;10079;55.740;37.662;2023-06-14T03:41:26;11.38;;;6.90;;
19836;SDS011;10079;55.740;37.662;2023-06-14T03:44:10;12.18;;;6.95;;
19836;SDS011;10079;55.740;37.662;2023-06-14T03:46:54;10.40;;;7.00;;
19836;SDS011;10079;55.740;37.662;2023-06-14T03:49:38;9.52;;;7.25;;
19836;SDS011;10079;55.740;37.662;2023-06-14T03:52:22;11.68;;;7.18;;
19836;SDS011;10079;55.740;37.662;2023-06-14T03:55:06;8.65;;;7.05;;
19836;SDS011;10079;55.740;37.662;2023-06-14T03:57:47;13.93;;;7.72;;
19836;SDS011;10079;55.740;37.662;2023-06-14T04:03:15;15.23;;;7.30;;
19836;SDS011;10079;55.740;37.662;2023-06-14T04:06:07;11.32;;;7.32;;
19836;SDS011;10079;55.740;37.662;2023-06-14T04:19:19;14.25;;;7.78;;
19836;SDS011;10079;55.740;37.662;2023-06-14T04:22:00;9.52;;;6.60;;
19836;SDS011;10079;55.740;37.662;2023-06-14T04:24:43;13.62;;;7.28;;
19836;SDS011;10079;55.740;37.662;2023-06-14T04:27:25;10.15;;;7.32;;
19836;SDS011;10079;55.740;37.662;2023-06-14T04:30:06;10.98;;;7.25;;
19836;SDS011;10079;55.740;37.662;2023-06-14T04:32:47;8.82;;;6.10;;
19836;SDS011;10079;55.740;37.662;2023-06-14T04:35:28;8.60;;;5.85;;
19836;SDS011;10079;55.740;37.662;2023-06-14T04:38:09;7.95;;;6.28;;
19836;SDS011;10079;55.740;37.662;2023-06-14T04:40:49;10.77;;;7.57;;
19836;SDS011;10079;55.740;37.662;2023-06-14T04:43:38;10.57;;;7.00;;
19836;SDS011;10079;55.740;37.662;2023-06-14T04:46:19;9.10;;;6.10;;
19836;SDS011;10079;55.740;37.662;2023-06-14T04:49:00;8.23;;;6.50;;
19836;SDS011;10079;55.740;37.662;2023-06-14T04:51:41;9.57;;;6.35;;
19836;SDS011;10079;55.740;37.662;2023-06-14T04:54:25;9.52;;;6.25;;
19836;SDS011;10079;55.740;37.662;2023-06-14T04:57:18;10.57;;;7.00;;
19836;SDS011;10079;55.740;37.662;2023-06-14T04:59:58;8.80;;;6.75;;
19836;SDS011;10079;55.740;37.662;2023-06-14T05:02:42;7.80;;;6.10;;
19836;SDS011;10079;55.740;37.662;2023-06-14T05:05:23;10.20;;;6.75;;
19836;SDS011;10079;55.740;37.662;2023-06-14T05:08:16;11.50;;;6.70;;
19836;SDS011;10079;55.740;37.662;2023-06-14T05:11:00;7.47;;;6.45;;
19836;SDS011;10079;55.740;37.662;2023-06-14T05:24:12;8.40;;;5.87;;
19836;SDS011;10079;55.740;37.662;2023-06-14T05:26:53;10.27;;;7.62;;
19836;SDS011;10079;55.740;37.662;2023-06-14T05:40:42;7.18;;;4.18;;
19836;SDS011;10079;55.740;37.662;2023-06-14T05:53:58;4.95;;;4.03;;
19836;SDS011;10079;55.740;37.662;2023-06-14T05:56:39;6.35;;;3.60;;
19836;SDS011;10079;55.740;37.662;2023-06-14T05:59:20;5.40;;;3.37;;
19836;SDS011;10079;55.740;37.662;2023-06-14T06:23:02;3.78;;;2.97;;
19836;SDS011;10079;55.740;37.662;2023-06-14T06:25:43;3.80;;;3.45;;
19836;SDS011;10079;55.740;37.662;2023-06-14T06:28:24;5.15;;;2.90;;
19836;SDS011;10079;55.740;37.662;2023-06-14T06:31:05;3.10;;;2.62;;
19836;SDS011;10079;55.740;37.662;2023-06-14T06:33:47;4.47;;;2.85;;
19836;SDS011;10079;55.740;37.662;2023-06-14T06:36:28;3.33;;;3.03;;
19836;SDS011;10079;55.740;37.662;2023-06-14T06:39:08;3.17;;;2.60;;
19836;SDS011;10079;55.740;37.662;2023-06-14T06:41:50;4.45;;;2.85;;
19836;SDS011;10079;55.740;37.662;2023-06-14T06:44:31;2.72;;;2.50;;
19836;SDS011;10079;55.740;37.662;2023-06-14T06:47:11;3.12;;;2.50;;
19836;SDS011;10079;55.740;37.662;2023-06-14T06:49:52;2.62;;;2.40;;
19836;SDS011;10079;55.740;37.662;2023-06-14T06:52:45;3.50;;;2.40;;
19836;SDS011;10079;55.740;37.662;2023-06-14T06:55:26;5.05;;;2.90;;
19836;SDS011;10079;55.740;37.662;2023-06-14T06:58:06;3.08;;;2.67;;
19836;SDS011;10079;55.740;37.662;2023-06-14T07:00:47;3.58;;;2.47;;
19836;SDS011;10079;55.740;37.662;2023-06-14T07:03:29;2.50;;;2.30;;
19836;SDS011;10079;55.740;37.662;2023-06-14T07:16:40;2.70;;;2.37;;
19836;SDS011;10079;55.740;37.662;2023-06-14T07:19:21;3.53;;;2.45;;
19836;SDS011;10079;55.740;37.662;2023-06-14T07:22:03;4.32;;;3.00;;
19836;SDS011;10079;55.740;37.662;2023-06-14T07:24:44;4.35;;;2.62;;
19836;SDS011;10079;55.740;37.662;2023-06-14T07:27:24;3.47;;;2.62;;
19836;SDS011;10079;55.740;37.662;2023-06-14T07:30:17;2.40;;;2.20;;
19836;SDS011;10079;55.740;37.662;2023-06-14T07:32:58;3.80;;;2.60;;
19836;SDS011;10079;55.740;37.662;2023-06-14T07:35:38;5.87;;;2.87;;
19836;SDS011;10079;55.740;37.662;2023-06-14T07:38:19;3.17;;;2.78;;
19836;SDS011;10079;55.740;37.662;2023-06-14T07:41:00;4.62;;;2.90;;
19836;SDS011;10079;55.740;37.662;2023-06-14T07:43:40;2.25;;;2.05;;
19836;SDS011;10079;55.740;37.662;2023-06-14T07:46:21;4.28;;;2.40;;
19836;SDS011;10079;55.740;37.662;2023-06-14T07:49:14;3.08;;;2.30;;
19836;SDS011;10079;55.740;37.662;2023-06-14T07:52:06;3.08;;;2.67;;
19836;SDS011;10079;55.740;37.662;2023-06-14T07:54:51;3.35;;;2.60;;
19836;SDS011;10079;55.740;37.662;2023-06-14T07:57:35;3.03;;;2.75;;
19836;SDS011;10079;55.740;37.662;2023-06-14T08:00:27;3.25;;;2.95;;
19836;SDS011;10079;55.740;37.662;2023-06-14T08:03:20;3.70;;;2.90;;
19836;SDS011;10079;55.740;37.662;2023-06-14T08:06:13;3.37;;;2.80;;
19836;SDS011;10079;55.740;37.662;2023-06-14T08:08:57;2.92;;;2.58;;
19836;SDS011;10079;55.740;37.662;2023-06-14T08:11:46;3.05;;;2.75;;
19836;SDS011;10079;55.740;37.662;2023-06-14T08:14:27;3.50;;;2.70;;
19836;SDS011;10079;55.740;37.662;2023-06-14T08:17:19;3.40;;;3.10;;
19836;SDS011;10079;55.740;37.662;2023-06-14T08:20:04;4.78;;;2.70;;
19836;SDS011;10079;55.740;37.662;2023-06-14T08:22:57;3.53;;;2.90;;
19836;SDS011;10079;55.740;37.662;2023-06-14T08:25:42;3.55;;;3.10;;
19836;SDS011;10079;55.740;37.662;2023-06-14T08:28:26;4.62;;;2.85;;
19836;SDS011;10079;55.740;37.662;2023-06-14T08:31:08;3.85;;;2.67;;
19836;SDS011;10079;55.740;37.662;2023-06-14T08:33:59;5.55;;;3.70;;
19836;SDS011;10079;55.740;37.662;2023-06-14T08:47:16;4.45;;;2.80;;
19836;SDS011;10079;55.740;37.662;2023-06-14T08:49:57;3.67;;;3.10;;
19836;SDS011;10079;55.740;37.662;2023-06-14T08:52:38;3.60;;;3.17;;
19836;SDS011;10079;55.740;37.662;2023-06-14T08:55:31;2.92;;;2.62;;
19836;SDS011;10079;55.740;37.662;2023-06-14T09:00:15;5.90;;;2.97;;
19836;SDS011;10079;55.740;37.662;2023-06-14T09:02:56;3.53;;;2.95;;
19836;SDS011;10079;55.740;37.662;2023-06-14T09:05:40;3.28;;;2.62;;
19836;SDS011;10079;55.740;37.662;2023-06-14T09:11:12;4.40;;;2.83;;
19836;SDS011;10079;55.740;37.662;2023-06-14T09:13:54;3.58;;;2.83;;
19836;SDS011;10079;55.740;37.662;2023-06-14T09:16:36;3.45;;;2.83;;
19836;SDS011;10079;55.740;37.662;2023-06-14T09:19:21;3.30;;;2.58;;
19836;SDS011;10079;55.740;37.662;2023-06-14T09:22:02;4.72;;;2.75;;
19836;SDS011;10079;55.740;37.662;2023-06-14T09:24:45;4.65;;;3.17;;
19836;SDS011;10079;55.740;37.662;2023-06-14T09:27:26;3.17;;;2.87;;
19836;SDS011;10079;55.740;37.662;2023-06-14T09:30:10;3.15;;;2.80;;
19836;SDS011;10079;55.740;37.662;2023-06-14T09:32:51;4.10;;;2.65;;
19836;SDS011;10079;55.740;37.662;2023-06-14T09:35:36;4.65;;;2.40;;
19836;SDS011;10079;55.740;37.662;2023-06-14T09:38:20;3.40;;;3.05;;
19836;SDS011;10079;55.740;37.662;2023-06-14T09:41:00;3.03;;;2.60;;
19836;SDS011;10079;55.740;37.662;2023-06-14T09:43:46;4.53;;;2.95;;
19836;SDS011;10079;55.740;37.662;2023-06-14T09:46:29;3.12;;;2.83;;
19836;SDS011;10079;55.740;37.662;2023-06-14T09:49:10;3.30;;;3.00;;
19836;SDS011;10079;55.740;37.662;2023-06-14T09:51:51;4.28;;;2.78;;
19836;SDS011;10079;55.740;37.662;2023-06-14T09:54:31;4.87;;;3.12;;
19836;SDS011;10079;55.740;37.662;2023-06-14T09:57:12;4.07;;;3.08;;
19836;SDS011;10079;55.740;37.662;2023-06-14T09:59:57;5.18;;;3.10;;
19836;SDS011;10079;55.740;37.662;2023-06-14T10:02:35;4.53;;;2.80;;
19836;SDS011;10079;55.740;37.662;2023-06-14T10:05:15;3.78;;;2.80;;
19836;SDS011;10079;55.740;37.662;2023-06-14T10:07:59;3.22;;;2.40;;
19836;SDS011;10079;55.740;37.662;2023-06-14T10:10:38;5.22;;;4.10;;
19836;SDS011;10079;55.740;37.662;2023-06-14T10:13:19;3.60;;;2.70;;
19836;SDS011;10079;55.740;37.662;2023-06-14T10:16:02;4.20;;;2.92;;
19836;SDS011;10079;55.740;37.662;2023-06-14T10:18:54;4.25;;;2.83;;
19836;SDS011;10079;55.740;37.662;2023-06-14T10:21:57;2.92;;;2.62;;
19836;SDS011;10079;55.740;37.662;2023-06-14T10:24:45;3.40;;;2.75;;
19836;SDS011;10079;55.740;37.662;2023-06-14T10:27:38;3.53;;;2.75;;
19836;SDS011;10079;55.740;37.662;2023-06-14T10:30:30;4.00;;;2.62;;
19836;SDS011;10079;55.740;37.662;2023-06-14T10:33:11;4.82;;;2.97;;
19836;SDS011;10079;55.740;37.662;2023-06-14T10:36:06;3.15;;;2.75;;
19836;SDS011;10079;55.740;37.662;2023-06-14T10:41:20;3.90;;;2.85;;
19836;SDS011;10079;55.740;37.662;2023-06-14T10:49:11;5.00;;;2.60;;
19836;SDS011;10079;55.740;37.662;2023-06-14T10:52:00;4.75;;;2.97;;
19836;SDS011;10079;55.740;37.662;2023-06-14T10:55:05;3.97;;;3.30;;
19836;SDS011;10079;55.740;37.662;2023-06-14T10:57:59;4.53;;;3.20;;
19836;SDS011;10079;55.740;37.662;2023-06-14T11:00:43;5.60;;;2.75;;
19836;SDS011;10079;55.740;37.662;2023-06-14T11:03:43;4.97;;;3.05;;
19836;SDS011;10079;55.740;37.662;2023-06-14T11:06:45;4.05;;;2.67;;
19836;SDS011;10079;55.740;37.662;2023-06-14T11:12:48;4.15;;;2.67;;
19836;SDS011;10079;55.740;37.662;2023-06-14T11:26:08;4.68;;;3.85;;
19836;SDS011;10079;55.740;37.662;2023-06-14T11:28:51;3.30;;;2.90;;
19836;SDS011;10079;55.740;37.662;2023-06-14T11:31:32;5.05;;;3.00;;
19836;SDS011;10079;55.740;37.662;2023-06-14T11:34:13;5.07;;;3.28;;
19836;SDS011;10079;55.740;37.662;2023-06-14T11:36:56;5.53;;;2.90;;
19836;SDS011;10079;55.740;37.662;2023-06-14T11:39:43;4.45;;;2.97;;
19836;SDS011;10079;55.740;37.662;2023-06-14T11:42:26;4.28;;;2.85;;
19836;SDS011;10079;55.740;37.662;2023-06-14T11:45:07;3.92;;;2.78;;
19836;SDS011;10079;55.740;37.662;2023-06-14T11:47:48;3.72;;;2.90;;
19836;SDS011;10079;55.740;37.662;2023-06-14T11:54:41;3.67;;;2.70;;
19836;SDS011;10079;55.740;37.662;2023-06-14T11:57:39;2.92;;;2.42;;
19836;SDS011;10079;55.740;37.662;2023-06-14T12:05:19;3.60;;;2.70;;
19836;SDS011;10079;55.740;37.662;2023-06-14T12:08:55;3.95;;;2.72;;
19836;SDS011;10079;55.740;37.662;2023-06-14T12:11:34;5.62;;;3.30;;
19836;SDS011;10079;55.740;37.662;2023-06-14T12:14:17;3.67;;;2.60;;
19836;SDS011;10079;55.740;37.662;2023-06-14T12:17:05;3.40;;;3.10;;
19836;SDS011;10079;55.740;37.662;2023-06-14T12:19:46;3.37;;;2.78;;
19836;SDS011;10079;55.740;37.662;2023-06-14T12:22:30;5.80;;;3.00;;
19836;SDS011;10079;55.740;37.662;2023-06-14T12:25:23;3.08;;;2.78;;
19836;SDS011;10079;55.740;37.662;2023-06-14T12:27:55;5.68;;;2.53;;
19836;SDS011;10079;55.740;37.662;2023-06-14T12:30:39;4.43;;;3.17;;
19836;SDS011;10079;55.740;37.662;2023-06-14T12:33:20;6.28;;;2.90;;
19836;SDS011;10079;55.740;37.662;2023-06-14T12:36:13;3.42;;;2.92;;
19836;SDS011;10079;55.740;37.662;2023-06-14T12:39:05;3.17;;;2.30;;
19836;SDS011;10079;55.740;37.662;2023-06-14T12:41:52;5.20;;;3.00;;
19836;SDS011;10079;55.740;37.662;2023-06-14T12:44:33;4.65;;;2.83;;
19836;SDS011;10079;55.740;37.662;2023-06-14T12:47:17;3.83;;;3.20;;
19836;SDS011;10079;55.740;37.662;2023-06-14T12:50:10;3.28;;;2.83;;
19836;SDS011;10079;55.740;37.662;2023-06-14T12:53:03;3.17;;;2.65;;
19836;SDS011;10079;55.740;37.662;2023-06-14T12:55:43;5.12;;;2.80;;
19836;SDS011;10079;55.740;37.662;2023-06-14T12:58:27;3.22;;;2.30;;
19836;SDS011;10079;55.740;37.662;2023-06-14T13:01:08;7.28;;;3.65;;
19836;SDS011;10079;55.740;37.662;2023-06-14T13:03:57;5.60;;;2.90;;
19836;SDS011;10079;55.740;37.662;2023-06-14T13:06:38;3.00;;;2.53;;
19836;SDS011;10079;55.740;37.662;2023-06-14T13:09:22;3.12;;;2.58;;
19836;SDS011;10079;55.740;37.662;2023-06-14T13:12:03;4.22;;;3.00;;
19836;SDS011;10079;55.740;37.662;2023-06-14T13:14:52;4.05;;;2.70;;
19836;SDS011;10079;55.740;37.662;2023-06-14T13:17:33;5.00;;;3.00;;
19836;SDS011;10079;55.740;37.662;2023-06-14T13:20:20;5.37;;;2.83;;
19836;SDS011;10079;55.740;37.662;2023-06-14T13:23:01;4.18;;;2.85;;
19836;SDS011;10079;55.740;37.662;2023-06-14T13:25:53;3.45;;;2.87;;
19836;SDS011;10079;55.740;37.662;2023-06-14T13:28:36;3.62;;;2.80;;
19836;SDS011;10079;55.740;37.662;2023-06-14T13:31:17;3.12;;;2.47;;
19836;SDS011;10079;55.740;37.662;2023-06-14T13:33:58;5.82;;;2.65;;
19836;SDS011;10079;55.740;37.662;2023-06-14T13:40:17;5.50;;;3.55;;
19836;SDS011;10079;55.740;37.662;2023-06-14T13:43:01;4.10;;;2.83;;
19836;SDS011;10079;55.740;37.662;2023-06-14T13:45:45;4.75;;;2.97;;
19836;SDS011;10079;55.740;37.662;2023-06-14T13:48:34;5.15;;;2.90;;
19836;SDS011;10079;55.740;37.662;2023-06-14T13:51:18;3.62;;;2.30;;
19836;SDS011;10079;55.740;37.662;2023-06-14T13:54:09;3.87;;;2.92;;
19836;SDS011;10079;55.740;37.662;2023-06-14T14:00:39;4.22;;;2.78;;
19836;SDS011;10079;55.740;37.662;2023-06-14T14:03:20;2.92;;;2.65;;
19836;SDS011;10079;55.740;37.662;2023-06-14T14:06:21;3.75;;;2.70;;
19836;SDS011;10079;55.740;37.662;2023-06-14T14:10:53;3.95;;;2.40;;
19836;SDS011;10079;55.740;37.662;2023-06-14T14:16:45;5.15;;;3.10;;
19836;SDS011;10079;55.740;37.662;2023-06-14T14:22:26;3.97;;;2.60;;
19836;SDS011;10079;55.740;37.662;2023-06-14T14:25:08;4.55;;;2.60;;
19836;SDS011;10079;55.740;37.662;2023-06-14T14:27:53;4.45;;;2.60;;
19836;SDS011;10079;55.740;37.662;2023-06-14T14:41:05;3.87;;;2.80;;
19836;SDS011;10079;55.740;37.662;2023-06-14T14:43:45;3.10;;;2.55;;
19836;SDS011;10079;55.740;37.662;2023-06-14T14:46:34;4.53;;;2.40;;
19836;SDS011;10079;55.740;37.662;2023-06-14T14:49:30;2.70;;;2.50;;
19836;SDS011;10079;55.740;37.662;2023-06-14T14:52:11;3.28;;;2.75;;
19836;SDS011;10079;55.740;37.662;2023-06-14T14:54:52;4.22;;;2.80;;
19836;SDS011;10079;55.740;37.662;2023-06-14T15:08:09;3.15;;;2.85;;
19836;SDS011;10079;55.740;37.662;2023-06-14T15:11:03;2.50;;;2.30;;
19836;SDS011;10079;55.740;37.662;2023-06-14T15:13:59;2.72;;;2.47;;
19836;SDS011;10079;55.740;37.662;2023-06-14T15:19:31;3.40;;;2.50;;
19836;SDS011;10079;55.740;37.662;2023-06-14T15:22:24;3.05;;;2.53;;
19836;SDS011;10079;55.740;37.662;2023-06-14T15:25:25;5.70;;;2.62;;
19836;SDS011;10079;55.740;37.662;2023-06-14T15:28:09;4.20;;;2.75;;
19836;SDS011;10079;55.740;37.662;2023-06-14T15:30:53;4.80;;;2.40;;
19836;SDS011;10079;55.740;37.662;2023-06-14T15:36:36;5.75;;;2.62;;
19836;SDS011;10079;55.740;37.662;2023-06-14T15:39:17;4.57;;;2.97;;
19836;SDS011;10079;55.740;37.662;2023-06-14T15:41:58;3.75;;;2.62;;
19836;SDS011;10079;55.740;37.662;2023-06-14T15:44:50;3.10;;;2.80;;
19836;SDS011;10079;55.740;37.662;2023-06-14T15:47:43;2.90;;;2.37;;
19836;SDS011;10079;55.740;37.662;2023-06-14T15:50:36;5.07;;;2.92;;
19836;SDS011;10079;55.740;37.662;2023-06-14T15:53:25;4.47;;;2.42;;
19836;SDS011;10079;55.740;37.662;2023-06-14T15:56:12;3.67;;;2.50;;
19836;SDS011;10079;55.740;37.662;2023-06-14T15:58:53;5.22;;;2.95;;
19836;SDS011;10079;55.740;37.662;2023-06-14T16:04:20;4.70;;;2.78;;
19836;SDS011;10079;55.740;37.662;2023-06-14T16:15:40;5.82;;;3.22;;
19836;SDS011;10079;55.740;37.662;2023-06-14T16:18:33;6.40;;;3.30;;
19836;SDS011;10079;55.740;37.662;2023-06-14T16:21:14;4.97;;;2.72;;
19836;SDS011;10079;55.740;37.662;2023-06-14T16:23:55;4.97;;;3.28;;
19836;SDS011;10079;55.740;37.662;2023-06-14T16:26:35;4.07;;;2.83;;
19836;SDS011;10079;55.740;37.662;2023-06-14T16:29:16;4.30;;;2.77;;
19836;SDS011;10079;55.740;37.662;2023-06-14T16:31:57;4.37;;;3.30;;
19836;SDS011;10079;55.740;37.662;2023-06-14T16:34:38;5.80;;;3.17;;
19836;SDS011;10079;55.740;37.662;2023-06-14T16:37:20;6.37;;;2.90;;
19836;SDS011;10079;55.740;37.662;2023-06-14T16:40:05;6.10;;;3.03;;
19836;SDS011;10079;55.740;37.662;2023-06-14T16:42:47;3.57;;;2.97;;
19836;SDS011;10079;55.740;37.662;2023-06-14T16:49:25;5.20;;;3.23;;
19836;SDS011;10079;55.740;37.662;2023-06-14T16:52:17;4.73;;;2.50;;
19836;SDS011;10079;55.740;37.662;2023-06-14T16:55:09;4.80;;;3.10;;
19836;SDS011;10079;55.740;37.662;2023-06-14T16:58:24;3.07;;;2.60;;
19836;SDS011;10079;55.740;37.662;2023-06-14T17:01:13;4.57;;;2.57;;
19836;SDS011;10079;55.740;37.662;2023-06-14T17:03:54;2.70;;;2.40;;
19836;SDS011;10079;55.740;37.662;2023-06-14T17:06:34;3.93;;;2.70;;
19836;SDS011;10079;55.740;37.662;2023-06-14T17:30:25;4.10;;;2.63;;
19836;SDS011;10079;55.740;37.662;2023-06-14T17:33:08;5.43;;;2.50;;
19836;SDS011;10079;55.740;37.662;2023-06-14T17:35:53;3.87;;;2.63;;
19836;SDS011;10079;55.740;37.662;2023-06-14T17:38:39;3.47;;;2.60;;
19836;SDS011;10079;55.740;37.662;2023-06-14T17:41:23;4.87;;;3.23;;
19836;SDS011;10079;55.740;37.662;2023-06-14T17:44:16;4.37;;;2.63;;
19836;SDS011;10079;55.740;37.662;2023-06-14T18:00:33;6.77;;;3.00;;
19836;SDS011;10079;55.740;37.662;2023-06-14T18:06:17;6.60;;;3.03;;
19836;SDS011;10079;55.740;37.662;2023-06-14T18:08:57;4.97;;;3.03;;
19836;SDS011;10079;55.740;37.662;2023-06-14T18:11:39;6.23;;;3.13;;
19836;SDS011;10079;55.740;37.662;2023-06-14T18:14:20;4.60;;;3.30;;
19836;SDS011;10079;55.740;37.662;2023-06-14T18:17:01;4.37;;;3.03;;
19836;SDS011;10079;55.740;37.662;2023-06-14T18:19:42;3.77;;;2.53;;
19836;SDS011;10079;55.740;37.662;2023-06-14T18:22:23;4.87;;;2.97;;
19836;SDS011;10079;55.740;37.662;2023-06-14T18:25:04;3.57;;;2.30;;
19836;SDS011;10079;55.740;37.662;2023-06-14T18:27:46;4.33;;;2.60;;
19836;SDS011;10079;55.740;37.662;2023-06-14T18:30:27;3.67;;;2.80;;
19836;SDS011;10079;55.740;37.662;2023-06-14T18:33:08;5.77;;;2.90;;
19836;SDS011;10079;55.740;37.662;2023-06-14T18:35:49;6.97;;;3.00;;
19836;SDS011;10079;55.740;37.662;2023-06-14T18:38:31;7.83;;;3.40;;
19836;SDS011;10079;55.740;37.662;2023-06-14T18:41:15;5.73;;;3.30;;
19836;SDS011;10079;55.740;37.662;2023-06-14T18:43:56;4.10;;;2.27;;
19836;SDS011;10079;55.740;37.662;2023-06-14T18:46:36;6.60;;;2.80;;
19836;SDS011;10079;55.740;37.662;2023-06-14T18:49:17;5.87;;;3.10;;
19836;SDS011;10079;55.740;37.662;2023-06-14T18:52:11;4.47;;;3.20;;
19836;SDS011;10079;55.740;37.662;2023-06-14T18:54:52;5.03;;;3.03;;
19836;SDS011;10079;55.740;37.662;2023-06-14T19:00:21;5.10;;;3.10;;
19836;SDS011;10079;55.740;37.662;2023-06-14T19:03:41;8.10;;;3.17;;
19836;SDS011;10079;55.740;37.662;2023-06-14T19:06:22;6.80;;;3.70;;
19836;SDS011;10079;55.740;37.662;2023-06-14T19:09:03;4.43;;;3.27;;
19836;SDS011;10079;55.740;37.662;2023-06-14T19:11:44;5.57;;;3.87;;
19836;SDS011;10079;55.740;37.662;2023-06-14T19:14:26;7.17;;;4.33;;
19836;SDS011;10079;55.740;37.662;2023-06-14T19:17:07;5.90;;;4.33;;
19836;SDS011;10079;55.740;37.662;2023-06-14T19:19:48;4.93;;;3.97;;
19836;SDS011;10079;55.740;37.662;2023-06-14T19:22:29;8.50;;;4.27;;
19836;SDS011;10079;55.740;37.662;2023-06-14T19:25:11;8.10;;;4.43;;
19836;SDS011;10079;55.740;37.662;2023-06-14T19:27:53;4.60;;;3.80;;
19836;SDS011;10079;55.740;37.662;2023-06-14T19:30:46;4.37;;;3.83;;
19836;SDS011;10079;55.740;37.662;2023-06-14T19:33:27;9.80;;;4.00;;
19836;SDS011;10079;55.740;37.662;2023-06-14T19:36:16;7.10;;;4.30;;
19836;SDS011;10079;55.740;37.662;2023-06-14T19:39:01;7.37;;;4.10;;
19836;SDS011;10079;55.740;37.662;2023-06-14T19:41:43;6.20;;;3.60;;
19836;SDS011;10079;55.740;37.662;2023-06-14T19:44:27;7.13;;;4.10;;
19836;SDS011;10079;55.740;37.662;2023-06-14T19:47:11;7.57;;;3.67;;
19836;SDS011;10079;55.740;37.662;2023-06-14T19:49:52;6.17;;;3.53;;
19836;SDS011;10079;55.740;37.662;2023-06-14T19:52:34;8.83;;;3.77;;
19836;SDS011;10079;55.740;37.662;2023-06-14T20:05:45;5.13;;;3.33;;
19836;SDS011;10079;55.740;37.662;2023-06-14T20:08:29;5.03;;;3.40;;
19836;SDS011;10079;55.740;37.662;2023-06-14T20:11:10;5.87;;;3.80;;
19836;SDS011;10079;55.740;37.662;2023-06-14T20:13:59;4.63;;;3.20;;
19836;SDS011;10079;55.740;37.662;2023-06-14T20:27:10;6.00;;;3.23;;
19836;SDS011;10079;55.740;37.662;2023-06-14T20:29:51;4.40;;;3.27;;
19836;SDS011;10079;55.740;37.662;2023-06-14T20:32:32;5.67;;;3.10;;
19836;SDS011;10079;55.740;37.662;2023-06-14T20:35:16;5.00;;;3.00;;
19836;SDS011;10079;55.740;37.662;2023-06-14T20:48:34;4.37;;;3.17;;
19836;SDS011;10079;55.740;37.662;2023-06-14T20:51:18;4.90;;;3.47;;